sensor_id;sensor_type;location;lat;lon;timestamp;pressure;altitude;pressure_sealevel;temperature;humidity
48862;BME280;34681;49.188;-0.374;2023-03-19T00:01:51;101051.88;;;13.87;65.59
48862;BME280;34681;49.188;-0.374;2023-03-19T00:04:17;101058.41;;;13.86;65.54
48862;BME280;34681;49.188;-0.374;2023-03-19T00:06:42;101061.09;;;13.78;65.68
48862;BME280;34681;49.188;-0.374;2023-03-19T00:09:08;101071.16;;;13.69;65.80
48862;BME280;34681;49.188;-0.374;2023-03-19T00:11:33;101063.41;;;13.47;66.02
48862;BME280;34681;49.188;-0.374;2023-03-19T00:13:59;101068.34;;;13.61;65.87
48862;BME280;34681;49.188;-0.374;2023-03-19T00:16:24;101065.84;;;13.68;65.58
48862;BME280;34681;49.188;-0.374;2023-03-19T00:18:50;101071.09;;;13.61;65.33
48862;BME280;34681;49.188;-0.374;2023-03-19T00:21:15;101076.69;;;13.52;65.62
48862;BME280;34681;49.188;-0.374;2023-03-19T00:23:41;101079.03;;;13.46;65.53
48862;BME280;34681;49.188;-0.374;2023-03-19T00:26:06;101074.41;;;13.47;65.60
48862;BME280;34681;49.188;-0.374;2023-03-19T00:28:33;101085.63;;;13.36;65.79
48862;BME280;34681;49.188;-0.374;2023-03-19T00:31:15;101099.44;;;13.26;66.10
48862;BME280;34681;49.188;-0.374;2023-03-19T00:33:41;101099.81;;;13.31;65.70
48862;BME280;34681;49.188;-0.374;2023-03-19T00:36:07;101107.78;;;13.34;65.37
48862;BME280;34681;49.188;-0.374;2023-03-19T00:38:33;101108.41;;;13.28;65.37
48862;BME280;34681;49.188;-0.374;2023-03-19T00:41:00;101104.13;;;13.16;65.66
48862;BME280;34681;49.188;-0.374;2023-03-19T00:43:26;101113.22;;;13.16;65.50
48862;BME280;34681;49.188;-0.374;2023-03-19T00:45:51;101112.78;;;12.93;66.09
48862;BME280;34681;49.188;-0.374;2023-03-19T00:48:17;101107.84;;;12.97;65.81
48862;BME280;34681;49.188;-0.374;2023-03-19T00:50:42;101122.38;;;13.07;66.56
48862;BME280;34681;49.188;-0.374;2023-03-19T00:53:07;101126.09;;;13.16;66.39
48862;BME280;34681;49.188;-0.374;2023-03-19T00:55:33;101117.97;;;13.24;66.26
48862;BME280;34681;49.188;-0.374;2023-03-19T00:57:58;101116.97;;;13.25;66.20
48862;BME280;34681;49.188;-0.374;2023-03-19T01:00:24;101126.34;;;13.23;66.49
48862;BME280;34681;49.188;-0.374;2023-03-19T01:02:49;101125.22;;;13.25;66.38
48862;BME280;34681;49.188;-0.374;2023-03-19T01:05:14;101118.44;;;13.19;66.68
48862;BME280;34681;49.188;-0.374;2023-03-19T01:07:40;101120.41;;;13.27;66.67
48862;BME280;34681;49.188;-0.374;2023-03-19T01:10:06;101117.06;;;13.33;66.20
48862;BME280;34681;49.188;-0.374;2023-03-19T01:12:32;101113.97;;;13.36;66.16
48862;BME280;34681;49.188;-0.374;2023-03-19T01:14:58;101116.72;;;13.36;66.45
48862;BME280;34681;49.188;-0.374;2023-03-19T01:17:23;101114.50;;;13.22;66.88
48862;BME280;34681;49.188;-0.374;2023-03-19T01:19:48;101110.44;;;13.26;66.56
48862;BME280;34681;49.188;-0.374;2023-03-19T01:22:14;101110.22;;;13.37;66.42
48862;BME280;34681;49.188;-0.374;2023-03-19T01:24:41;101099.06;;;13.39;66.14
48862;BME280;34681;49.188;-0.374;2023-03-19T01:27:06;101114.13;;;13.35;66.53
48862;BME280;34681;49.188;-0.374;2023-03-19T01:29:32;101119.06;;;13.31;66.84
48862;BME280;34681;49.188;-0.374;2023-03-19T01:31:57;101110.63;;;13.42;66.77
48862;BME280;34681;49.188;-0.374;2023-03-19T01:34:23;101113.53;;;13.41;66.82
48862;BME280;34681;49.188;-0.374;2023-03-19T01:36:48;101110.06;;;13.11;66.80
48862;BME280;34681;49.188;-0.374;2023-03-19T01:39:14;101108.47;;;13.36;66.97
48862;BME280;34681;49.188;-0.374;2023-03-19T01:41:39;101098.84;;;13.32;67.10
48862;BME280;34681;49.188;-0.374;2023-03-19T01:46:48;101112.72;;;13.48;67.17
48862;BME280;34681;49.188;-0.374;2023-03-19T01:49:15;101113.53;;;13.59;66.70
48862;BME280;34681;49.188;-0.374;2023-03-19T01:51:44;101116.19;;;13.68;66.56
48862;BME280;34681;49.188;-0.374;2023-03-19T01:54:13;101127.19;;;13.68;66.27
48862;BME280;34681;49.188;-0.374;2023-03-19T01:56:40;101130.41;;;13.46;67.13
48862;BME280;34681;49.188;-0.374;2023-03-19T01:59:11;101125.06;;;13.62;67.01
48862;BME280;34681;49.188;-0.374;2023-03-19T02:01:45;101123.09;;;13.72;66.80
48862;BME280;34681;49.188;-0.374;2023-03-19T02:04:12;101119.97;;;13.67;66.95
48862;BME280;34681;49.188;-0.374;2023-03-19T02:06:38;101116.66;;;13.64;67.37
48862;BME280;34681;49.188;-0.374;2023-03-19T02:09:05;101131.81;;;13.68;67.09
48862;BME280;34681;49.188;-0.374;2023-03-19T02:11:31;101133.78;;;13.75;66.88
48862;BME280;34681;49.188;-0.374;2023-03-19T02:13:56;101133.13;;;13.82;66.88
48862;BME280;34681;49.188;-0.374;2023-03-19T02:16:22;101126.63;;;13.83;66.55
48862;BME280;34681;49.188;-0.374;2023-03-19T02:18:47;101136.63;;;13.66;67.21
48862;BME280;34681;49.188;-0.374;2023-03-19T02:21:15;101129.06;;;13.68;67.32
48862;BME280;34681;49.188;-0.374;2023-03-19T02:26:31;101130.19;;;13.75;67.16
48862;BME280;34681;49.188;-0.374;2023-03-19T02:28:56;101117.38;;;13.66;67.38
48862;BME280;34681;49.188;-0.374;2023-03-19T02:31:22;101113.81;;;13.73;67.18
48862;BME280;34681;49.188;-0.374;2023-03-19T02:36:47;101110.53;;;13.52;67.23
48862;BME280;34681;49.188;-0.374;2023-03-19T02:39:22;101104.94;;;13.62;67.00
48862;BME280;34681;49.188;-0.374;2023-03-19T02:41:51;101111.63;;;13.59;67.11
48862;BME280;34681;49.188;-0.374;2023-03-19T02:44:17;101115.88;;;13.54;67.13
48862;BME280;34681;49.188;-0.374;2023-03-19T02:46:44;101116.03;;;13.34;68.16
48862;BME280;34681;49.188;-0.374;2023-03-19T02:49:09;101126.31;;;13.32;68.42
48862;BME280;34681;49.188;-0.374;2023-03-19T02:51:35;101120.25;;;13.29;68.83
48862;BME280;34681;49.188;-0.374;2023-03-19T02:54:02;101126.56;;;13.11;69.49
48862;BME280;34681;49.188;-0.374;2023-03-19T02:56:27;101139.81;;;13.43;68.78
48862;BME280;34681;49.188;-0.374;2023-03-19T02:58:52;101131.41;;;13.45;68.74
48862;BME280;34681;49.188;-0.374;2023-03-19T03:01:18;101136.84;;;13.55;68.68
48862;BME280;34681;49.188;-0.374;2023-03-19T03:03:43;101135.19;;;13.62;68.16
48862;BME280;34681;49.188;-0.374;2023-03-19T03:06:09;101138.56;;;13.38;68.85
48862;BME280;34681;49.188;-0.374;2023-03-19T03:08:34;101133.47;;;13.43;68.86
48862;BME280;34681;49.188;-0.374;2023-03-19T03:11:00;101127.47;;;13.30;69.75
48862;BME280;34681;49.188;-0.374;2023-03-19T03:13:26;101118.78;;;13.52;69.37
48862;BME280;34681;49.188;-0.374;2023-03-19T03:15:52;101120.75;;;13.42;69.68
48862;BME280;34681;49.188;-0.374;2023-03-19T03:18:17;101124.91;;;13.46;69.64
48862;BME280;34681;49.188;-0.374;2023-03-19T03:20:43;101111.00;;;13.47;69.77
48862;BME280;34681;49.188;-0.374;2023-03-19T03:23:09;101120.09;;;13.48;69.70
48862;BME280;34681;49.188;-0.374;2023-03-19T03:25:35;101116.13;;;13.42;70.03
48862;BME280;34681;49.188;-0.374;2023-03-19T03:28:01;101114.59;;;13.48;70.28
48862;BME280;34681;49.188;-0.374;2023-03-19T03:30:27;101110.78;;;13.59;69.92
48862;BME280;34681;49.188;-0.374;2023-03-19T03:32:52;101102.50;;;13.76;69.20
48862;BME280;34681;49.188;-0.374;2023-03-19T03:35:18;101109.13;;;13.66;69.72
48862;BME280;34681;49.188;-0.374;2023-03-19T03:37:48;101107.16;;;13.76;69.71
48862;BME280;34681;49.188;-0.374;2023-03-19T03:40:13;101111.94;;;13.74;69.70
48862;BME280;34681;49.188;-0.374;2023-03-19T03:42:40;101109.41;;;13.81;69.54
48862;BME280;34681;49.188;-0.374;2023-03-19T03:45:07;101111.69;;;13.85;69.29
48862;BME280;34681;49.188;-0.374;2023-03-19T03:47:33;101112.09;;;13.90;69.24
48862;BME280;34681;49.188;-0.374;2023-03-19T03:50:00;101111.44;;;13.96;69.11
48862;BME280;34681;49.188;-0.374;2023-03-19T03:52:25;101107.13;;;13.94;69.42
48862;BME280;34681;49.188;-0.374;2023-03-19T03:54:55;101106.31;;;14.01;69.02
48862;BME280;34681;49.188;-0.374;2023-03-19T03:57:20;101117.25;;;13.93;69.33
48862;BME280;34681;49.188;-0.374;2023-03-19T03:59:46;101120.56;;;13.79;69.81
48862;BME280;34681;49.188;-0.374;2023-03-19T04:02:11;101114.53;;;13.75;70.09
48862;BME280;34681;49.188;-0.374;2023-03-19T04:04:37;101112.56;;;13.86;69.89
48862;BME280;34681;49.188;-0.374;2023-03-19T04:07:02;101106.94;;;13.95;69.43
48862;BME280;34681;49.188;-0.374;2023-03-19T04:09:27;101106.25;;;13.93;69.70
48862;BME280;34681;49.188;-0.374;2023-03-19T04:11:52;101113.09;;;13.89;70.06
48862;BME280;34681;49.188;-0.374;2023-03-19T04:14:18;101116.44;;;13.75;70.34
48862;BME280;34681;49.188;-0.374;2023-03-19T04:16:43;101116.88;;;13.70;70.66
48862;BME280;34681;49.188;-0.374;2023-03-19T04:19:09;101120.81;;;13.68;70.58
48862;BME280;34681;49.188;-0.374;2023-03-19T04:21:34;101121.66;;;13.86;70.27
48862;BME280;34681;49.188;-0.374;2023-03-19T04:23:59;101131.13;;;13.66;70.83
48862;BME280;34681;49.188;-0.374;2023-03-19T04:26:26;101130.88;;;13.77;70.61
48862;BME280;34681;49.188;-0.374;2023-03-19T04:28:51;101127.78;;;13.80;70.72
48862;BME280;34681;49.188;-0.374;2023-03-19T04:31:17;101138.88;;;13.70;70.84
48862;BME280;34681;49.188;-0.374;2023-03-19T04:33:42;101138.94;;;13.96;70.32
48862;BME280;34681;49.188;-0.374;2023-03-19T04:36:08;101138.88;;;13.88;70.54
48862;BME280;34681;49.188;-0.374;2023-03-19T04:38:34;101146.72;;;14.01;70.19
48862;BME280;34681;49.188;-0.374;2023-03-19T04:40:59;101155.34;;;14.06;70.20
48862;BME280;34681;49.188;-0.374;2023-03-19T04:43:25;101152.94;;;14.03;70.19
48862;BME280;34681;49.188;-0.374;2023-03-19T04:45:51;101157.81;;;13.91;70.94
48862;BME280;34681;49.188;-0.374;2023-03-19T04:48:17;101165.59;;;13.96;70.68
48862;BME280;34681;49.188;-0.374;2023-03-19T04:50:43;101170.47;;;14.02;70.60
48862;BME280;34681;49.188;-0.374;2023-03-19T04:53:09;101170.16;;;13.87;71.06
48862;BME280;34681;49.188;-0.374;2023-03-19T04:55:35;101171.56;;;13.73;71.42
48862;BME280;34681;49.188;-0.374;2023-03-19T04:58:01;101184.06;;;13.68;71.81
48862;BME280;34681;49.188;-0.374;2023-03-19T05:00:26;101190.59;;;13.67;72.10
48862;BME280;34681;49.188;-0.374;2023-03-19T05:02:52;101204.34;;;13.67;72.05
48862;BME280;34681;49.188;-0.374;2023-03-19T05:05:17;101207.84;;;13.41;72.36
48862;BME280;34681;49.188;-0.374;2023-03-19T05:07:43;101207.78;;;13.14;72.37
48862;BME280;34681;49.188;-0.374;2023-03-19T05:10:09;101208.22;;;12.91;72.56
48862;BME280;34681;49.188;-0.374;2023-03-19T05:12:34;101211.94;;;12.90;73.02
48862;BME280;34681;49.188;-0.374;2023-03-19T05:15:00;101216.72;;;12.88;72.65
48862;BME280;34681;49.188;-0.374;2023-03-19T05:17:25;101227.19;;;12.65;72.03
48862;BME280;34681;49.188;-0.374;2023-03-19T05:19:51;101229.34;;;12.72;72.25
48862;BME280;34681;49.188;-0.374;2023-03-19T05:22:17;101231.56;;;12.58;72.25
48862;BME280;34681;49.188;-0.374;2023-03-19T05:24:42;101228.13;;;12.47;72.33
48862;BME280;34681;49.188;-0.374;2023-03-19T05:27:08;101241.72;;;12.19;73.04
48862;BME280;34681;49.188;-0.374;2023-03-19T05:29:33;101242.44;;;12.21;72.65
48862;BME280;34681;49.188;-0.374;2023-03-19T05:31:59;101247.31;;;12.47;72.59
48862;BME280;34681;49.188;-0.374;2023-03-19T05:34:27;101254.72;;;12.36;71.69
48862;BME280;34681;49.188;-0.374;2023-03-19T05:36:52;101262.09;;;12.36;71.89
48862;BME280;34681;49.188;-0.374;2023-03-19T05:39:18;101259.22;;;12.18;70.94
48862;BME280;34681;49.188;-0.374;2023-03-19T05:41:43;101265.38;;;11.91;71.45
48862;BME280;34681;49.188;-0.374;2023-03-19T05:44:09;101262.47;;;11.83;70.05
48862;BME280;34681;49.188;-0.374;2023-03-19T05:46:34;101262.03;;;11.68;70.53
48862;BME280;34681;49.188;-0.374;2023-03-19T05:49:00;101273.25;;;11.65;70.19
48862;BME280;34681;49.188;-0.374;2023-03-19T05:51:25;101275.28;;;11.73;69.97
48862;BME280;34681;49.188;-0.374;2023-03-19T05:53:51;101284.00;;;11.88;69.63
48862;BME280;34681;49.188;-0.374;2023-03-19T05:56:16;101281.22;;;11.68;69.68
48862;BME280;34681;49.188;-0.374;2023-03-19T05:58:42;101285.91;;;11.47;69.25
48862;BME280;34681;49.188;-0.374;2023-03-19T06:01:07;101297.88;;;11.56;69.74
48862;BME280;34681;49.188;-0.374;2023-03-19T06:03:32;101302.38;;;11.57;69.36
48862;BME280;34681;49.188;-0.374;2023-03-19T06:05:58;101303.91;;;11.80;69.20
48862;BME280;34681;49.188;-0.374;2023-03-19T06:08:23;101306.59;;;11.70;68.48
48862;BME280;34681;49.188;-0.374;2023-03-19T06:10:51;101301.84;;;11.72;69.10
48862;BME280;34681;49.188;-0.374;2023-03-19T06:13:17;101300.88;;;11.83;68.63
48862;BME280;34681;49.188;-0.374;2023-03-19T06:15:42;101302.91;;;11.91;68.17
48862;BME280;34681;49.188;-0.374;2023-03-19T06:18:07;101300.34;;;12.18;67.43
48862;BME280;34681;49.188;-0.374;2023-03-19T06:20:33;101309.84;;;11.95;67.81
48862;BME280;34681;49.188;-0.374;2023-03-19T06:22:58;101316.81;;;12.08;67.54
48862;BME280;34681;49.188;-0.374;2023-03-19T06:25:23;101322.75;;;12.33;67.04
48862;BME280;34681;49.188;-0.374;2023-03-19T06:27:49;101332.41;;;12.37;67.23
48862;BME280;34681;49.188;-0.374;2023-03-19T06:30:14;101328.81;;;12.36;67.20
48862;BME280;34681;49.188;-0.374;2023-03-19T06:32:40;101335.00;;;12.48;67.09
48862;BME280;34681;49.188;-0.374;2023-03-19T06:35:06;101340.50;;;12.48;66.97
48862;BME280;34681;49.188;-0.374;2023-03-19T06:37:32;101349.75;;;12.47;67.07
48862;BME280;34681;49.188;-0.374;2023-03-19T06:39:58;101358.41;;;12.33;67.16
48862;BME280;34681;49.188;-0.374;2023-03-19T06:42:23;101359.25;;;12.24;67.23
48862;BME280;34681;49.188;-0.374;2023-03-19T06:44:49;101365.50;;;12.26;67.47
48862;BME280;34681;49.188;-0.374;2023-03-19T06:47:14;101366.19;;;12.28;67.12
48862;BME280;34681;49.188;-0.374;2023-03-19T06:49:40;101364.31;;;12.09;66.87
48862;BME280;34681;49.188;-0.374;2023-03-19T06:52:06;101372.94;;;12.04;67.63
48862;BME280;34681;49.188;-0.374;2023-03-19T06:54:31;101380.78;;;12.28;67.16
48862;BME280;34681;49.188;-0.374;2023-03-19T06:56:57;101384.41;;;12.87;65.75
48862;BME280;34681;49.188;-0.374;2023-03-19T06:59:23;101379.84;;;13.44;64.79
48862;BME280;34681;49.188;-0.374;2023-03-19T07:01:48;101389.34;;;13.87;63.61
48862;BME280;34681;49.188;-0.374;2023-03-19T07:04:14;101384.84;;;14.13;61.79
48862;BME280;34681;49.188;-0.374;2023-03-19T07:06:39;101388.19;;;15.06;60.60
48862;BME280;34681;49.188;-0.374;2023-03-19T07:09:04;101403.44;;;15.18;59.74
48862;BME280;34681;49.188;-0.374;2023-03-19T07:11:30;101399.69;;;16.13;56.94
48862;BME280;34681;49.188;-0.374;2023-03-19T07:13:56;101400.81;;;17.83;53.19
48862;BME280;34681;49.188;-0.374;2023-03-19T07:16:21;101405.00;;;19.56;49.50
48862;BME280;34681;49.188;-0.374;2023-03-19T07:18:46;101416.34;;;22.12;45.16
48862;BME280;34681;49.188;-0.374;2023-03-19T07:21:12;101415.06;;;22.69;42.69
48862;BME280;34681;49.188;-0.374;2023-03-19T07:23:37;101413.28;;;19.41;47.29
48862;BME280;34681;49.188;-0.374;2023-03-19T07:26:03;101416.56;;;17.66;50.36
48862;BME280;34681;49.188;-0.374;2023-03-19T07:28:28;101416.81;;;16.83;52.26
48862;BME280;34681;49.188;-0.374;2023-03-19T07:30:54;101423.59;;;17.93;51.30
48862;BME280;34681;49.188;-0.374;2023-03-19T07:33:20;101430.72;;;21.53;43.83
48862;BME280;34681;49.188;-0.374;2023-03-19T07:35:46;101432.53;;;19.43;46.58
48862;BME280;34681;49.188;-0.374;2023-03-19T07:38:11;101438.59;;;18.77;48.12
48862;BME280;34681;49.188;-0.374;2023-03-19T07:40:36;101440.91;;;19.20;46.81
48862;BME280;34681;49.188;-0.374;2023-03-19T07:43:02;101445.06;;;17.91;49.02
48862;BME280;34681;49.188;-0.374;2023-03-19T07:45:28;101446.34;;;16.99;51.25
48862;BME280;34681;49.188;-0.374;2023-03-19T07:47:53;101455.31;;;17.83;51.06
48862;BME280;34681;49.188;-0.374;2023-03-19T07:50:19;101461.56;;;18.24;49.49
48862;BME280;34681;49.188;-0.374;2023-03-19T07:52:48;101458.75;;;17.85;49.81
48862;BME280;34681;49.188;-0.374;2023-03-19T07:55:15;101457.75;;;17.12;51.12
48862;BME280;34681;49.188;-0.374;2023-03-19T07:57:41;101456.75;;;17.22;51.38
48862;BME280;34681;49.188;-0.374;2023-03-19T08:00:07;101469.84;;;17.77;50.19
48862;BME280;34681;49.188;-0.374;2023-03-19T08:02:32;101466.88;;;17.62;50.40
48862;BME280;34681;49.188;-0.374;2023-03-19T08:04:58;101475.22;;;17.05;50.29
48862;BME280;34681;49.188;-0.374;2023-03-19T08:07:26;101469.53;;;16.40;52.85
48862;BME280;34681;49.188;-0.374;2023-03-19T08:09:51;101466.97;;;16.12;53.39
48862;BME280;34681;49.188;-0.374;2023-03-19T08:12:17;101475.56;;;16.43;53.01
48862;BME280;34681;49.188;-0.374;2023-03-19T08:14:42;101486.56;;;16.35;53.42
48862;BME280;34681;49.188;-0.374;2023-03-19T08:17:07;101490.00;;;16.71;52.51
48862;BME280;34681;49.188;-0.374;2023-03-19T08:19:33;101486.63;;;17.34;52.08
48862;BME280;34681;49.188;-0.374;2023-03-19T08:21:58;101494.59;;;17.13;51.55
48862;BME280;34681;49.188;-0.374;2023-03-19T08:24:23;101495.09;;;17.17;51.46
48862;BME280;34681;49.188;-0.374;2023-03-19T08:26:49;101489.41;;;17.75;51.05
48862;BME280;34681;49.188;-0.374;2023-03-19T08:29:15;101499.97;;;17.72;49.51
48862;BME280;34681;49.188;-0.374;2023-03-19T08:31:40;101492.13;;;17.67;50.63
48862;BME280;34681;49.188;-0.374;2023-03-19T08:34:07;101494.88;;;16.94;51.68
48862;BME280;34681;49.188;-0.374;2023-03-19T08:36:34;101504.41;;;16.49;52.66
48862;BME280;34681;49.188;-0.374;2023-03-19T08:39:00;101498.91;;;16.57;52.49
48862;BME280;34681;49.188;-0.374;2023-03-19T08:41:25;101504.91;;;16.44;52.31
48862;BME280;34681;49.188;-0.374;2023-03-19T08:43:51;101498.00;;;16.40;52.63
48862;BME280;34681;49.188;-0.374;2023-03-19T08:46:16;101504.03;;;16.44;52.27
48862;BME280;34681;49.188;-0.374;2023-03-19T08:48:42;101512.09;;;16.29;52.55
48862;BME280;34681;49.188;-0.374;2023-03-19T08:51:07;101502.84;;;16.46;52.09
48862;BME280;34681;49.188;-0.374;2023-03-19T08:53:34;101513.59;;;16.15;52.64
48862;BME280;34681;49.188;-0.374;2023-03-19T08:56:01;101520.72;;;16.26;53.39
48862;BME280;34681;49.188;-0.374;2023-03-19T08:58:27;101511.09;;;16.38;53.15
48862;BME280;34681;49.188;-0.374;2023-03-19T09:00:59;101519.22;;;16.82;52.83
48862;BME280;34681;49.188;-0.374;2023-03-19T09:03:26;101511.97;;;16.73;52.06
48862;BME280;34681;49.188;-0.374;2023-03-19T09:05:51;101515.81;;;16.88;51.14
48862;BME280;34681;49.188;-0.374;2023-03-19T09:08:16;101529.34;;;17.32;51.02
48862;BME280;34681;49.188;-0.374;2023-03-19T09:10:42;101537.06;;;17.12;51.47
48862;BME280;34681;49.188;-0.374;2023-03-19T09:13:07;101530.75;;;15.75;51.27
48862;BME280;34681;49.188;-0.374;2023-03-19T09:15:32;101537.31;;;15.38;52.84
48862;BME280;34681;49.188;-0.374;2023-03-19T09:17:58;101541.25;;;15.00;53.39
48862;BME280;34681;49.188;-0.374;2023-03-19T09:20:23;101547.47;;;15.02;53.94
48862;BME280;34681;49.188;-0.374;2023-03-19T09:22:48;101553.25;;;15.09;54.08
48862;BME280;34681;49.188;-0.374;2023-03-19T09:25:14;101560.47;;;15.10;53.75
48862;BME280;34681;49.188;-0.374;2023-03-19T09:27:39;101560.72;;;14.71;54.48
48862;BME280;34681;49.188;-0.374;2023-03-19T09:30:05;101556.63;;;14.57;54.67
48862;BME280;34681;49.188;-0.374;2023-03-19T09:32:34;101567.59;;;14.67;55.42
48862;BME280;34681;49.188;-0.374;2023-03-19T09:35:00;101574.34;;;14.73;54.98
48862;BME280;34681;49.188;-0.374;2023-03-19T09:37:25;101564.66;;;14.69;54.39
48862;BME280;34681;49.188;-0.374;2023-03-19T09:39:50;101560.19;;;14.68;54.27
48862;BME280;34681;49.188;-0.374;2023-03-19T09:44:52;101584.00;;;14.59;55.29
48862;BME280;34681;49.188;-0.374;2023-03-19T09:47:28;101578.84;;;14.37;55.03
48862;BME280;34681;49.188;-0.374;2023-03-19T09:49:58;101582.97;;;14.13;54.88
48862;BME280;34681;49.188;-0.374;2023-03-19T09:52:48;101588.75;;;14.20;55.17
48862;BME280;34681;49.188;-0.374;2023-03-19T09:57:43;101580.44;;;14.49;54.26
48862;BME280;34681;49.188;-0.374;2023-03-19T10:00:31;101587.66;;;14.77;54.12
48862;BME280;34681;49.188;-0.374;2023-03-19T10:05:52;101588.59;;;15.85;51.99
48862;BME280;34681;49.188;-0.374;2023-03-19T10:13:43;101596.56;;;15.70;51.65
48862;BME280;34681;49.188;-0.374;2023-03-19T10:16:23;101592.38;;;15.30;52.55
48862;BME280;34681;49.188;-0.374;2023-03-19T10:18:52;101600.28;;;15.43;52.95
48862;BME280;34681;49.188;-0.374;2023-03-19T10:21:31;101594.72;;;14.89;51.45
48862;BME280;34681;49.188;-0.374;2023-03-19T10:26:29;101597.13;;;14.75;52.47
48862;BME280;34681;49.188;-0.374;2023-03-19T10:29:02;101602.28;;;15.05;51.58
48862;BME280;34681;49.188;-0.374;2023-03-19T10:31:37;101609.28;;;15.63;50.12
48862;BME280;34681;49.188;-0.374;2023-03-19T10:36:39;101615.75;;;14.81;51.40
48862;BME280;34681;49.188;-0.374;2023-03-19T10:39:04;101607.25;;;15.02;50.92
48862;BME280;34681;49.188;-0.374;2023-03-19T10:41:53;101611.28;;;15.07;51.46
48862;BME280;34681;49.188;-0.374;2023-03-19T10:44:27;101624.78;;;14.83;52.96
48862;BME280;34681;49.188;-0.374;2023-03-19T10:46:58;101630.66;;;14.88;52.14
48862;BME280;34681;49.188;-0.374;2023-03-19T10:49:25;101637.66;;;15.10;52.23
48862;BME280;34681;49.188;-0.374;2023-03-19T10:51:50;101635.94;;;14.81;52.51
48862;BME280;34681;49.188;-0.374;2023-03-19T10:54:24;101639.88;;;14.22;53.16
48862;BME280;34681;49.188;-0.374;2023-03-19T10:56:55;101636.00;;;14.25;53.88
48862;BME280;34681;49.188;-0.374;2023-03-19T10:59:32;101623.47;;;14.50;54.23
48862;BME280;34681;49.188;-0.374;2023-03-19T11:02:20;101626.53;;;15.02;54.23
48862;BME280;34681;49.188;-0.374;2023-03-19T11:04:48;101624.63;;;15.48;50.60
48862;BME280;34681;49.188;-0.374;2023-03-19T11:07:18;101630.94;;;15.58;50.84
48862;BME280;34681;49.188;-0.374;2023-03-19T11:09:48;101639.16;;;15.22;50.65
48862;BME280;34681;49.188;-0.374;2023-03-19T11:14:46;101629.84;;;14.41;53.19
48862;BME280;34681;49.188;-0.374;2023-03-19T11:17:36;101643.09;;;15.20;52.37
48862;BME280;34681;49.188;-0.374;2023-03-19T11:20:26;101642.44;;;15.71;50.30
48862;BME280;34681;49.188;-0.374;2023-03-19T11:22:53;101640.25;;;15.75;49.41
48862;BME280;34681;49.188;-0.374;2023-03-19T11:25:29;101643.88;;;15.75;49.73
48862;BME280;34681;49.188;-0.374;2023-03-19T11:28:12;101654.66;;;15.51;50.44
48862;BME280;34681;49.188;-0.374;2023-03-19T11:36:13;101656.91;;;15.65;49.40
48862;BME280;34681;49.188;-0.374;2023-03-19T11:38:53;101656.47;;;15.60;48.62
48862;BME280;34681;49.188;-0.374;2023-03-19T11:41:45;101661.91;;;15.69;49.46
48862;BME280;34681;49.188;-0.374;2023-03-19T11:44:25;101663.78;;;15.51;48.96
48862;BME280;34681;49.188;-0.374;2023-03-19T11:47:07;101659.91;;;15.44;48.68
48862;BME280;34681;49.188;-0.374;2023-03-19T11:55:56;101661.03;;;15.51;49.13
48862;BME280;34681;49.188;-0.374;2023-03-19T12:01:14;101659.34;;;15.23;50.57
48862;BME280;34681;49.188;-0.374;2023-03-19T12:04:12;101663.84;;;14.96;50.31
48862;BME280;34681;49.188;-0.374;2023-03-19T12:09:18;101661.38;;;14.66;51.18
48862;BME280;34681;49.188;-0.374;2023-03-19T12:25:44;101666.28;;;14.72;49.39
48862;BME280;34681;49.188;-0.374;2023-03-19T12:34:13;101683.69;;;15.27;48.99
48862;BME280;34681;49.188;-0.374;2023-03-19T12:39:37;101681.38;;;15.50;48.14
48862;BME280;34681;49.188;-0.374;2023-03-19T12:42:07;101688.56;;;14.78;47.99
48862;BME280;34681;49.188;-0.374;2023-03-19T12:44:43;101683.53;;;14.74;48.07
48862;BME280;34681;49.188;-0.374;2023-03-19T12:47:35;101695.78;;;14.52;49.18
48862;BME280;34681;49.188;-0.374;2023-03-19T12:50:08;101680.91;;;14.06;49.10
48862;BME280;34681;49.188;-0.374;2023-03-19T12:52:40;101681.03;;;14.14;49.86
48862;BME280;34681;49.188;-0.374;2023-03-19T12:55:35;101683.94;;;14.32;50.13
48862;BME280;34681;49.188;-0.374;2023-03-19T12:58:11;101691.78;;;14.17;50.34
48862;BME280;34681;49.188;-0.374;2023-03-19T13:01:02;101689.66;;;14.68;50.39
48862;BME280;34681;49.188;-0.374;2023-03-19T13:03:40;101690.97;;;14.44;51.02
48862;BME280;34681;49.188;-0.374;2023-03-19T13:06:19;101693.94;;;14.23;50.47
48862;BME280;34681;49.188;-0.374;2023-03-19T13:08:53;101693.91;;;14.43;50.77
48862;BME280;34681;49.188;-0.374;2023-03-19T13:11:44;101697.81;;;14.87;47.96
48862;BME280;34681;49.188;-0.374;2023-03-19T13:14:16;101688.59;;;15.33;48.27
48862;BME280;34681;49.188;-0.374;2023-03-19T13:22:05;101706.81;;;15.89;46.15
48862;BME280;34681;49.188;-0.374;2023-03-19T13:24:37;101703.97;;;15.54;46.06
48862;BME280;34681;49.188;-0.374;2023-03-19T13:27:06;101710.09;;;15.75;46.62
48862;BME280;34681;49.188;-0.374;2023-03-19T13:29:34;101701.03;;;15.55;47.33
48862;BME280;34681;49.188;-0.374;2023-03-19T13:32:05;101697.13;;;15.58;47.75
48862;BME280;34681;49.188;-0.374;2023-03-19T13:34:33;101695.97;;;15.15;48.33
48862;BME280;34681;49.188;-0.374;2023-03-19T13:37:04;101696.53;;;15.82;47.77
48862;BME280;34681;49.188;-0.374;2023-03-19T13:39:33;101694.13;;;16.05;46.92
48862;BME280;34681;49.188;-0.374;2023-03-19T13:57:54;101695.28;;;15.31;47.49
48862;BME280;34681;49.188;-0.374;2023-03-19T14:03:18;101692.13;;;15.26;48.12
48862;BME280;34681;49.188;-0.374;2023-03-19T14:05:46;101686.09;;;15.40;48.82
48862;BME280;34681;49.188;-0.374;2023-03-19T14:08:22;101701.75;;;14.84;49.59
48862;BME280;34681;49.188;-0.374;2023-03-19T14:10:51;101696.56;;;15.09;48.92
48862;BME280;34681;49.188;-0.374;2023-03-19T14:13:24;101689.81;;;15.49;50.31
48862;BME280;34681;49.188;-0.374;2023-03-19T14:15:50;101703.00;;;15.00;49.63
48862;BME280;34681;49.188;-0.374;2023-03-19T14:18:20;101709.00;;;15.13;49.83